createdAt,value
2018-12-26T00:02:18.312Z,39.30
2018-12-26T00:04:45.758Z,40.60
2018-12-26T00:07:13.172Z,36.97
2018-12-26T00:09:40.613Z,38.23
2018-12-26T00:12:08.022Z,42.03
2018-12-26T00:14:35.460Z,38.10
2018-12-26T00:17:02.881Z,41.00
2018-12-26T00:19:30.341Z,39.50
2018-12-26T00:21:57.769Z,38.07
2018-12-26T00:24:25.166Z,38.20
2018-12-26T00:26:52.596Z,35.60
2018-12-26T00:29:20.033Z,34.57
2018-12-26T00:31:47.490Z,37.17
2018-12-26T00:34:14.892Z,35.43
2018-12-26T00:36:42.294Z,34.80
2018-12-26T00:39:09.726Z,38.83
2018-12-26T00:41:37.161Z,38.30
2018-12-26T00:44:04.568Z,46.37
2018-12-26T00:46:32.011Z,43.00
2018-12-26T00:48:59.419Z,50.17
2018-12-26T00:51:26.849Z,40.17
2018-12-26T00:53:54.297Z,39.07
2018-12-26T00:56:21.701Z,45.07
2018-12-26T00:58:49.133Z,46.83
2018-12-26T01:01:16.551Z,44.93
2018-12-26T01:03:43.975Z,41.03
2018-12-26T01:06:11.408Z,41.17
2018-12-26T01:08:38.847Z,34.73
2018-12-26T01:11:06.264Z,33.13
2018-12-26T01:13:33.730Z,31.27
2018-12-26T01:16:01.200Z,36.93
2018-12-26T01:18:28.613Z,32.77
2018-12-26T01:20:56.055Z,34.73
2018-12-26T01:23:23.475Z,34.40
2018-12-26T01:25:50.930Z,40.30
2018-12-26T01:28:18.363Z,41.97
2018-12-26T01:30:45.786Z,38.50
2018-12-26T01:33:13.221Z,37.40
2018-12-26T01:35:40.655Z,33.37
2018-12-26T01:38:08.087Z,31.03
2018-12-26T01:40:35.496Z,36.20
2018-12-26T01:43:02.946Z,31.33
2018-12-26T01:45:30.372Z,33.33
2018-12-26T01:47:57.790Z,32.47
2018-12-26T01:50:25.238Z,34.17
2018-12-26T01:52:52.676Z,37.60
2018-12-26T01:55:20.099Z,35.10
2018-12-26T01:57:47.543Z,35.10
2018-12-26T02:00:14.977Z,32.73
2018-12-26T02:02:42.419Z,34.47
2018-12-26T02:05:09.828Z,37.70
2018-12-26T02:07:37.431Z,35.83
2018-12-26T02:10:04.840Z,41.37
2018-12-26T02:12:32.265Z,37.00
2018-12-26T02:14:59.708Z,40.47
2018-12-26T02:17:27.156Z,50.22
2018-12-26T02:19:54.570Z,40.97
2018-12-26T02:22:22.002Z,40.37
2018-12-26T02:24:49.420Z,31.73
2018-12-26T02:27:16.858Z,30.20
2018-12-26T02:29:44.304Z,31.10
2018-12-26T02:32:11.725Z,32.37
2018-12-26T02:34:39.200Z,34.57
2018-12-26T02:37:06.630Z,34.97
2018-12-26T02:39:34.085Z,41.80
2018-12-26T02:42:01.547Z,37.30
2018-12-26T02:44:28.993Z,38.13
2018-12-26T02:46:56.406Z,42.27
2018-12-26T02:49:23.896Z,43.17
2018-12-26T02:51:51.268Z,42.60
2018-12-26T02:54:18.715Z,41.33
2018-12-26T02:56:48.929Z,45.97
2018-12-26T02:59:13.555Z,41.07
2018-12-26T03:01:40.999Z,42.77
2018-12-26T03:04:08.404Z,35.20
2018-12-26T03:06:35.855Z,35.03
2018-12-26T03:09:03.263Z,34.13
2018-12-26T03:11:30.691Z,31.33
2018-12-26T03:13:58.137Z,31.57
2018-12-26T03:16:25.567Z,38.93
2018-12-26T03:18:53.004Z,35.50
2018-12-26T03:21:20.423Z,37.37
2018-12-26T03:23:47.879Z,40.03
2018-12-26T03:26:15.285Z,39.23
2018-12-26T03:28:42.722Z,39.03
2018-12-26T03:31:10.165Z,35.67
2018-12-26T03:33:37.581Z,35.10
2018-12-26T03:36:05.014Z,37.17
2018-12-26T03:38:32.450Z,41.73
2018-12-26T03:40:59.875Z,44.43
2018-12-26T03:43:27.293Z,42.50
2018-12-26T03:45:54.717Z,46.20
2018-12-26T03:48:22.184Z,41.27
2018-12-26T03:50:49.600Z,45.00
2018-12-26T03:53:17.057Z,35.63
2018-12-26T03:55:44.462Z,42.03
2018-12-26T03:58:11.908Z,42.57
2018-12-26T04:00:39.352Z,41.22
2018-12-26T04:03:06.789Z,36.27
2018-12-26T04:05:34.191Z,37.50
2018-12-26T04:08:01.644Z,38.67
2018-12-26T04:10:29.067Z,41.13
2018-12-26T04:12:56.486Z,38.87
2018-12-26T04:15:23.908Z,38.90
2018-12-26T04:17:51.383Z,44.27
2018-12-26T04:20:18.820Z,39.53
2018-12-26T04:22:46.236Z,37.53
2018-12-26T04:25:13.660Z,47.83
2018-12-26T04:27:41.085Z,45.27
2018-12-26T04:30:08.527Z,46.67
2018-12-26T04:32:35.943Z,46.43
2018-12-26T04:35:03.370Z,50.90
2018-12-26T04:37:30.792Z,47.23
2018-12-26T04:39:58.232Z,47.03
2018-12-26T04:42:25.654Z,55.47
2018-12-26T04:44:53.091Z,41.47
2018-12-26T04:47:20.525Z,49.00
2018-12-26T04:49:47.960Z,43.53
2018-12-26T04:52:15.382Z,43.13
2018-12-26T04:54:42.805Z,40.50
2018-12-26T04:57:10.219Z,39.57
2018-12-26T04:59:37.648Z,52.40
2018-12-26T05:02:05.067Z,42.73
2018-12-26T05:04:32.499Z,43.50
2018-12-26T05:06:59.907Z,44.37
2018-12-26T05:09:27.362Z,39.43
2018-12-26T05:11:54.771Z,47.67
2018-12-26T05:14:22.316Z,49.97
2018-12-26T05:16:49.607Z,48.63
2018-12-26T05:19:17.009Z,47.73
2018-12-26T05:21:44.449Z,47.63
2018-12-26T05:24:11.876Z,44.13
2018-12-26T05:26:39.286Z,50.70
2018-12-26T05:29:06.735Z,49.70
2018-12-26T05:31:34.152Z,55.57
2018-12-26T05:34:01.554Z,50.13
2018-12-26T05:36:28.992Z,47.20
2018-12-26T05:38:56.392Z,45.27
2018-12-26T05:41:23.844Z,38.20
2018-12-26T05:43:51.256Z,37.23
2018-12-26T05:46:18.712Z,35.77
2018-12-26T05:48:46.150Z,34.60
2018-12-26T05:51:13.576Z,33.47
2018-12-26T05:53:41.012Z,37.67
2018-12-26T05:56:08.425Z,36.97
2018-12-26T05:58:35.872Z,35.50
2018-12-26T06:01:03.291Z,38.10
2018-12-26T06:03:30.720Z,34.40
2018-12-26T06:05:58.137Z,35.63
2018-12-26T06:08:25.569Z,34.03
2018-12-26T06:10:53.003Z,32.37
2018-12-26T06:13:20.439Z,33.37
2018-12-26T06:15:47.845Z,30.13
2018-12-26T06:18:15.276Z,31.07
2018-12-26T06:20:42.769Z,31.90
2018-12-26T06:23:10.108Z,31.77
2018-12-26T06:25:37.541Z,32.30
2018-12-26T06:28:04.957Z,41.77
2018-12-26T06:30:32.374Z,43.20
2018-12-26T06:32:59.794Z,40.47
2018-12-26T06:35:27.218Z,45.73
2018-12-26T06:37:54.630Z,42.33
2018-12-26T06:40:22.048Z,42.07
2018-12-26T06:42:49.472Z,45.13
2018-12-26T06:45:16.886Z,42.30
2018-12-26T06:47:44.354Z,42.60
2018-12-26T06:50:11.782Z,44.37
2018-12-26T06:52:39.237Z,47.23
2018-12-26T06:55:06.661Z,45.17
2018-12-26T06:57:34.125Z,45.43
2018-12-26T07:00:01.542Z,43.30
2018-12-26T07:02:28.973Z,39.10
2018-12-26T07:04:56.373Z,46.93
2018-12-26T07:07:23.793Z,47.50
2018-12-26T07:09:51.238Z,38.83
2018-12-26T07:12:18.647Z,41.37
2018-12-26T07:14:46.082Z,41.53
2018-12-26T07:17:13.520Z,42.23
2018-12-26T07:19:40.993Z,42.03
2018-12-26T07:22:08.401Z,40.93
2018-12-26T07:24:35.825Z,45.43
2018-12-26T07:27:03.237Z,47.27
2018-12-26T07:29:30.684Z,52.00
2018-12-26T07:31:58.117Z,47.77
2018-12-26T07:34:25.572Z,49.23
2018-12-26T07:36:52.982Z,46.17
2018-12-26T07:39:20.409Z,49.93
2018-12-26T07:41:47.858Z,47.00
2018-12-26T07:44:15.271Z,43.27
2018-12-26T07:46:42.677Z,47.83
2018-12-26T07:49:10.129Z,47.30
2018-12-26T07:51:37.536Z,50.27
2018-12-26T07:54:04.973Z,46.60
2018-12-26T07:56:32.407Z,41.80
2018-12-26T07:58:59.826Z,39.90
2018-12-26T08:01:27.250Z,42.07
2018-12-26T08:03:54.691Z,40.33
2018-12-26T08:06:22.152Z,40.70
2018-12-26T08:08:49.576Z,41.40
2018-12-26T08:11:16.986Z,36.33
2018-12-26T08:13:44.416Z,38.57
2018-12-26T08:16:11.857Z,39.27
2018-12-26T08:18:39.281Z,42.03
2018-12-26T08:21:06.715Z,43.97
2018-12-26T08:23:34.115Z,43.33
2018-12-26T08:26:01.544Z,45.13
2018-12-26T08:28:28.976Z,45.47
2018-12-26T08:30:56.417Z,45.87
2018-12-26T08:33:23.824Z,43.93
2018-12-26T08:35:51.274Z,41.67
2018-12-26T08:38:18.749Z,38.70
2018-12-26T08:40:46.202Z,47.10
2018-12-26T08:43:13.618Z,40.67
2018-12-26T08:45:41.097Z,39.43
2018-12-26T08:48:08.502Z,41.13
2018-12-26T08:50:35.927Z,48.70
2018-12-26T08:53:03.358Z,44.43
2018-12-26T08:55:30.802Z,46.03
2018-12-26T08:57:58.230Z,47.67
2018-12-26T09:00:25.656Z,54.67
2018-12-26T09:02:53.088Z,46.63
2018-12-26T09:05:20.497Z,45.13
2018-12-26T09:07:47.953Z,47.67
2018-12-26T09:10:15.353Z,43.17
2018-12-26T09:12:42.779Z,37.13
2018-12-26T09:15:10.210Z,37.93
2018-12-26T09:17:37.647Z,38.67
2018-12-26T09:20:05.072Z,37.23
2018-12-26T09:22:32.488Z,41.33
2018-12-26T09:24:59.925Z,39.03
2018-12-26T09:27:27.346Z,34.90
2018-12-26T09:29:54.775Z,36.77
2018-12-26T09:32:22.182Z,39.73
2018-12-26T09:34:51.148Z,35.97
2018-12-26T09:37:18.559Z,31.87
2018-12-26T09:39:45.985Z,34.53
2018-12-26T09:42:13.397Z,33.30
2018-12-26T09:44:40.812Z,32.53
2018-12-26T09:47:08.249Z,33.30
2018-12-26T09:49:35.719Z,31.90
2018-12-26T09:52:03.119Z,37.67
2018-12-26T09:54:30.561Z,31.20
2018-12-26T09:56:57.986Z,28.43
2018-12-26T09:59:25.457Z,32.73
2018-12-26T10:01:54.377Z,35.33
2018-12-26T10:04:20.295Z,33.50
2018-12-26T10:06:47.732Z,33.83
2018-12-26T10:09:15.144Z,31.70
2018-12-26T10:11:42.570Z,32.03
2018-12-26T10:14:10.008Z,31.33
2018-12-26T10:16:37.438Z,37.97
2018-12-26T10:19:04.876Z,35.40
2018-12-26T10:21:32.323Z,28.50
2018-12-26T10:23:59.733Z,28.53
2018-12-26T10:26:27.152Z,30.90
2018-12-26T10:29:00.960Z,31.40
2018-12-26T10:31:21.969Z,30.97
2018-12-26T10:33:49.428Z,32.57
2018-12-26T10:36:16.862Z,32.40
2018-12-26T10:38:44.280Z,31.37
2018-12-26T10:41:11.720Z,27.47
2018-12-26T10:43:39.166Z,32.37
2018-12-26T10:46:06.585Z,29.53
2018-12-26T10:48:33.996Z,31.53
2018-12-26T10:51:01.424Z,31.33
2018-12-26T10:53:28.845Z,29.10
2018-12-26T10:55:56.258Z,29.77
2018-12-26T10:58:23.698Z,29.87
2018-12-26T11:00:51.115Z,31.50
2018-12-26T11:03:18.547Z,31.27
2018-12-26T11:05:45.954Z,29.70
2018-12-26T11:08:13.385Z,31.17
2018-12-26T11:10:40.804Z,27.77
2018-12-26T11:13:08.247Z,31.83
2018-12-26T11:15:35.663Z,33.87
2018-12-26T11:18:03.107Z,29.17
2018-12-26T11:20:30.537Z,28.60
2018-12-26T11:22:57.942Z,30.80
2018-12-26T11:25:25.360Z,29.47
2018-12-26T11:27:52.979Z,29.73
2018-12-26T11:30:20.206Z,29.27
2018-12-26T11:32:47.620Z,34.83
2018-12-26T11:35:15.041Z,28.03
2018-12-26T11:37:42.470Z,27.67
2018-12-26T11:40:09.886Z,28.37
2018-12-26T11:42:37.290Z,26.30
2018-12-26T11:45:04.751Z,27.90
2018-12-26T11:47:32.177Z,27.70
2018-12-26T11:49:59.590Z,27.33
2018-12-26T11:52:27.193Z,28.97
2018-12-26T11:54:54.611Z,29.17
2018-12-26T11:57:22.025Z,28.07
2018-12-26T11:59:49.459Z,27.87
2018-12-26T12:02:20.753Z,26.37
2018-12-26T12:04:44.288Z,25.63
2018-12-26T12:07:11.719Z,28.97
2018-12-26T12:09:39.132Z,25.90
2018-12-26T12:12:06.559Z,27.63
2018-12-26T12:14:33.987Z,27.30
2018-12-26T12:17:01.519Z,25.07
2018-12-26T12:19:28.874Z,24.00
2018-12-26T12:21:56.285Z,23.57
2018-12-26T12:24:23.740Z,21.40
2018-12-26T12:26:51.167Z,21.63
2018-12-26T12:29:18.573Z,23.70
2018-12-26T12:31:46.071Z,21.67
2018-12-26T12:34:13.462Z,20.13
2018-12-26T12:36:40.856Z,23.40
2018-12-26T12:39:08.293Z,23.73
2018-12-26T12:41:35.726Z,25.17
2018-12-26T12:44:03.159Z,22.33
2018-12-26T12:46:30.568Z,24.13
2018-12-26T12:48:57.987Z,23.20
2018-12-26T12:51:25.395Z,20.50
2018-12-26T12:53:52.810Z,22.53
2018-12-26T12:56:20.240Z,22.20
2018-12-26T12:58:47.673Z,22.03
2018-12-26T13:01:15.128Z,22.83
2018-12-26T13:03:46.450Z,21.50
2018-12-26T13:06:09.996Z,22.70
2018-12-26T13:08:37.350Z,22.87
2018-12-26T13:11:04.766Z,22.20
2018-12-26T13:13:32.171Z,20.87
2018-12-26T13:15:59.595Z,23.87
2018-12-26T13:18:26.999Z,23.40
2018-12-26T13:20:54.437Z,23.53
2018-12-26T13:23:21.859Z,27.00
2018-12-26T13:25:49.275Z,24.00
2018-12-26T13:28:16.710Z,23.60
2018-12-26T13:30:44.118Z,22.93
2018-12-26T13:33:11.533Z,24.23
2018-12-26T13:35:38.952Z,21.27
2018-12-26T13:38:06.386Z,21.43
2018-12-26T13:40:33.956Z,21.40
2018-12-26T13:43:01.358Z,22.00
2018-12-26T13:45:28.844Z,22.90
2018-12-26T13:47:56.292Z,21.10
2018-12-26T13:50:23.696Z,22.00
2018-12-26T13:52:51.093Z,23.93
2018-12-26T13:55:18.520Z,21.53
2018-12-26T13:57:45.923Z,23.73
2018-12-26T14:00:13.388Z,23.17
2018-12-26T14:02:40.825Z,20.87
2018-12-26T14:05:08.249Z,25.23
2018-12-26T14:07:35.675Z,25.40
2018-12-26T14:10:03.099Z,26.80
2018-12-26T14:12:30.522Z,22.77
2018-12-26T14:15:00.619Z,19.87
2018-12-26T14:17:28.029Z,20.07
2018-12-26T14:19:55.454Z,21.57
2018-12-26T14:22:22.864Z,21.20
2018-12-26T14:24:50.268Z,21.90
2018-12-26T14:27:17.697Z,21.80
2018-12-26T14:29:45.477Z,23.13
2018-12-26T14:32:12.907Z,23.80
2018-12-26T14:34:40.306Z,21.17
2018-12-26T14:37:07.733Z,24.57
2018-12-26T14:39:35.141Z,24.40
2018-12-26T14:42:02.630Z,23.20
2018-12-26T14:44:30.062Z,22.97
2018-12-26T14:46:57.483Z,23.30
2018-12-26T14:49:24.887Z,22.37
2018-12-26T14:51:52.530Z,24.47
2018-12-26T14:54:19.934Z,22.03
2018-12-26T14:56:47.370Z,20.90
2018-12-26T14:59:14.923Z,23.40
2018-12-26T15:01:42.329Z,23.47
2018-12-26T15:04:09.762Z,23.53
2018-12-26T15:06:37.210Z,21.13
2018-12-26T15:09:04.637Z,23.53
2018-12-26T15:11:32.043Z,19.50
2018-12-26T15:13:59.469Z,21.30
2018-12-26T15:16:26.921Z,18.47
2018-12-26T15:18:54.352Z,21.57
2018-12-26T15:21:21.755Z,21.93
2018-12-26T15:23:49.202Z,18.93
2018-12-26T15:26:16.599Z,21.13
2018-12-26T15:28:44.057Z,19.03
2018-12-26T15:31:11.595Z,22.30
2018-12-26T15:33:39.002Z,21.30
2018-12-26T15:36:06.431Z,20.60
2018-12-26T15:38:33.876Z,21.73
2018-12-26T15:41:01.310Z,19.37
2018-12-26T15:43:28.722Z,18.83
2018-12-26T15:45:56.153Z,20.43
2018-12-26T15:48:23.571Z,19.50
2018-12-26T15:50:50.989Z,20.03
2018-12-26T15:53:18.435Z,23.80
2018-12-26T15:55:45.838Z,25.97
2018-12-26T15:58:13.272Z,22.63
2018-12-26T16:00:40.702Z,24.60
2018-12-26T16:03:08.164Z,24.13
2018-12-26T16:05:35.596Z,24.43
2018-12-26T16:08:03.012Z,21.73
2018-12-26T16:10:30.432Z,23.40
2018-12-26T16:12:57.867Z,23.90
2018-12-26T16:15:25.324Z,21.67
2018-12-26T16:17:52.691Z,21.87
2018-12-26T16:20:20.121Z,20.60
2018-12-26T16:22:47.535Z,24.23
2018-12-26T16:25:14.991Z,29.77
2018-12-26T16:27:42.410Z,21.90
2018-12-26T16:30:09.854Z,20.93
2018-12-26T16:32:37.270Z,24.97
2018-12-26T16:35:04.753Z,27.17
2018-12-26T16:37:32.114Z,25.53
2018-12-26T16:39:59.597Z,22.50
2018-12-26T16:42:27.065Z,23.53
2018-12-26T16:44:54.446Z,29.37
2018-12-26T16:47:21.881Z,40.97
2018-12-26T16:49:49.291Z,39.75
2018-12-26T16:52:16.720Z,33.47
2018-12-26T16:54:44.150Z,44.77
2018-12-26T16:57:11.567Z,39.33
2018-12-26T16:59:38.981Z,35.43
2018-12-26T17:02:06.415Z,34.00
2018-12-26T17:04:33.820Z,31.93
2018-12-26T17:07:01.275Z,36.53
2018-12-26T17:09:28.675Z,42.50
2018-12-26T17:11:56.090Z,39.00
2018-12-26T17:14:23.520Z,32.63
2018-12-26T17:16:51.120Z,28.33
2018-12-26T17:19:18.559Z,26.23
2018-12-26T17:21:45.984Z,27.50
2018-12-26T17:24:16.737Z,24.53
2018-12-26T17:26:40.836Z,24.87
2018-12-26T17:29:08.616Z,24.97
2018-12-26T17:31:36.045Z,26.43
2018-12-26T17:34:03.512Z,26.43
2018-12-26T17:36:30.949Z,27.97
2018-12-26T17:38:58.387Z,26.03
2018-12-26T17:41:25.832Z,25.10
2018-12-26T17:43:54.742Z,23.87
2018-12-26T17:46:22.187Z,25.13
2018-12-26T17:48:49.604Z,23.93
2018-12-26T17:51:17.042Z,30.67
2018-12-26T17:53:50.361Z,29.40
2018-12-26T17:56:17.814Z,34.10
2018-12-26T17:59:06.037Z,36.20
2018-12-26T18:01:51.881Z,31.47
2018-12-26T18:04:19.313Z,34.10
2018-12-26T18:06:46.755Z,30.93
2018-12-26T18:09:14.161Z,30.33
2018-12-26T18:11:41.578Z,28.20
2018-12-26T18:14:09.034Z,30.13
2018-12-26T18:16:36.488Z,28.37
2018-12-26T18:19:03.934Z,31.03
2018-12-26T18:21:31.337Z,30.63
2018-12-26T18:23:58.774Z,36.93
2018-12-26T18:26:26.195Z,37.60
2018-12-26T18:28:53.628Z,37.43
2018-12-26T18:31:22.205Z,35.93
2018-12-26T18:33:48.490Z,43.10
2018-12-26T18:36:15.906Z,43.00
2018-12-26T18:38:43.526Z,54.47
2018-12-26T18:41:10.933Z,57.80
2018-12-26T18:43:38.338Z,50.13
2018-12-26T18:46:05.827Z,48.70
2018-12-26T18:48:33.279Z,52.73
2018-12-26T18:51:00.713Z,42.60
2018-12-26T18:53:28.164Z,49.20
2018-12-26T18:55:55.606Z,44.87
2018-12-26T18:58:23.004Z,42.03
2018-12-26T19:00:50.427Z,40.97
2018-12-26T19:03:17.838Z,36.60
2018-12-26T19:05:45.314Z,32.90
2018-12-26T19:08:12.706Z,40.70
2018-12-26T19:10:40.187Z,38.77
2018-12-26T19:13:07.638Z,46.77
2018-12-26T19:15:35.059Z,52.97
2018-12-26T19:18:02.507Z,46.43
2018-12-26T19:20:29.923Z,45.73
2018-12-26T19:22:57.426Z,50.03
2018-12-26T19:25:24.814Z,53.53
2018-12-26T19:27:52.280Z,57.87
2018-12-26T19:30:19.718Z,46.23
2018-12-26T19:32:47.173Z,43.50
2018-12-26T19:35:14.602Z,46.67
2018-12-26T19:37:42.054Z,48.30
2018-12-26T19:40:09.458Z,50.33
2018-12-26T19:42:37.474Z,54.63
2018-12-26T19:45:04.357Z,55.83
2018-12-26T19:47:31.784Z,57.47
2018-12-26T19:50:04.873Z,57.03
2018-12-26T19:52:26.643Z,50.10
2018-12-26T19:54:54.093Z,48.77
2018-12-26T19:57:21.542Z,48.37
2018-12-26T19:59:49.002Z,50.27
2018-12-26T20:02:16.590Z,49.87
2018-12-26T20:04:44.022Z,42.47
2018-12-26T20:07:11.482Z,44.13
2018-12-26T20:09:38.948Z,40.23
2018-12-26T20:12:06.388Z,43.77
2018-12-26T20:14:33.843Z,42.93
2018-12-26T20:17:01.264Z,40.53
2018-12-26T20:19:28.676Z,44.93
2018-12-26T20:21:56.147Z,41.53
2018-12-26T20:24:23.589Z,39.97
2018-12-26T20:26:51.043Z,47.80
2018-12-26T20:29:18.485Z,46.37
2018-12-26T20:31:45.906Z,46.63
2018-12-26T20:34:13.326Z,48.53
2018-12-26T20:36:40.768Z,46.07
2018-12-26T20:39:08.230Z,46.27
2018-12-26T20:41:35.648Z,45.17
2018-12-26T20:44:03.128Z,41.17
2018-12-26T20:46:30.546Z,43.80
2018-12-26T20:48:57.991Z,45.00
2018-12-26T20:51:25.396Z,41.47
2018-12-26T20:53:52.851Z,42.10
2018-12-26T20:56:20.282Z,38.40
2018-12-26T20:58:47.721Z,42.90
2018-12-26T21:01:15.267Z,49.30
2018-12-26T21:03:42.686Z,42.93
2018-12-26T21:06:10.112Z,41.90
2018-12-26T21:08:37.520Z,45.33
2018-12-26T21:11:04.987Z,49.63
2018-12-26T21:13:32.401Z,42.47
2018-12-26T21:15:59.851Z,44.07
2018-12-26T21:18:27.273Z,47.83
2018-12-26T21:20:54.706Z,48.07
2018-12-26T21:23:22.130Z,43.27
2018-12-26T21:25:49.556Z,51.97
2018-12-26T21:28:16.979Z,44.90
2018-12-26T21:30:44.376Z,44.50
2018-12-26T21:33:11.801Z,48.47
2018-12-26T21:35:39.201Z,40.70
2018-12-26T21:38:06.658Z,43.97
2018-12-26T21:40:34.181Z,48.03
2018-12-26T21:43:01.620Z,50.33
2018-12-26T21:45:29.094Z,48.73
2018-12-26T21:47:56.516Z,44.83
2018-12-26T21:50:23.984Z,47.20
2018-12-26T21:52:51.498Z,40.97
2018-12-26T21:55:18.901Z,42.60
2018-12-26T21:57:46.503Z,39.50
2018-12-26T22:00:13.925Z,45.03
2018-12-26T22:02:41.398Z,37.23
2018-12-26T22:05:08.806Z,43.40
2018-12-26T22:07:36.248Z,45.90
2018-12-26T22:10:03.684Z,47.67
2018-12-26T22:12:31.109Z,42.47
2018-12-26T22:14:58.522Z,42.93
2018-12-26T22:17:25.959Z,46.70
2018-12-26T22:19:53.377Z,51.43
2018-12-26T22:22:20.806Z,58.97
2018-12-26T22:24:48.215Z,61.00
2018-12-26T22:27:15.666Z,49.70
2018-12-26T22:29:43.086Z,52.50
2018-12-26T22:32:10.578Z,56.87
2018-12-26T22:34:38.014Z,51.17
2018-12-26T22:37:05.443Z,49.63
2018-12-26T22:39:32.917Z,46.03
2018-12-26T22:42:00.336Z,42.07
2018-12-26T22:44:28.081Z,44.27
2018-12-26T22:46:55.206Z,44.47
2018-12-26T22:49:22.651Z,46.17
2018-12-26T22:51:50.048Z,47.20
2018-12-26T22:54:17.477Z,45.47
2018-12-26T22:56:44.887Z,46.27
2018-12-26T22:59:12.328Z,41.23
2018-12-26T23:01:39.793Z,39.97
2018-12-26T23:04:07.231Z,41.53
2018-12-26T23:06:34.638Z,39.70
2018-12-26T23:09:02.107Z,43.57
2018-12-26T23:11:29.518Z,39.80
2018-12-26T23:13:56.980Z,41.60
2018-12-26T23:16:24.411Z,40.33
2018-12-26T23:18:51.835Z,37.10
2018-12-26T23:21:19.254Z,39.63
2018-12-26T23:23:46.684Z,44.87
2018-12-26T23:26:14.107Z,42.83
2018-12-26T23:28:41.521Z,46.83
2018-12-26T23:31:08.970Z,44.30
2018-12-26T23:33:36.395Z,40.37
2018-12-26T23:36:03.827Z,42.90
2018-12-26T23:38:31.262Z,36.03
2018-12-26T23:40:58.681Z,33.50
2018-12-26T23:43:26.138Z,37.60
2018-12-26T23:45:53.536Z,40.00
2018-12-26T23:48:20.961Z,47.50
2018-12-26T23:50:48.370Z,49.23
2018-12-26T23:53:15.808Z,53.60
2018-12-26T23:55:43.211Z,47.70
2018-12-26T23:58:10.674Z,50.43
